createdAt,value
2023-02-07T00:01:44.397Z,98848.59
2023-02-07T00:04:12.757Z,98850.78
2023-02-07T00:06:41.067Z,98857.06
2023-02-07T00:09:12.811Z,98858.91
2023-02-07T00:11:41.641Z,98862.03
2023-02-07T00:14:13.641Z,98854.69
2023-02-07T00:16:47.462Z,98869.69
2023-02-07T00:19:16.407Z,98861.09
2023-02-07T00:21:44.762Z,98864.59
2023-02-07T00:24:14.031Z,98864.75
2023-02-07T00:26:43.220Z,98850.16
2023-02-07T00:29:12.278Z,98854.38
2023-02-07T00:31:42.464Z,98852.53
2023-02-07T00:34:16.298Z,98861.56
2023-02-07T00:36:45.059Z,98858.94
2023-02-07T00:39:16.877Z,98862.59
2023-02-07T00:41:46.714Z,98868.53
2023-02-07T00:44:15.350Z,98865.75
2023-02-07T00:46:44.973Z,98887.88
2023-02-07T00:49:14.173Z,98884.88
2023-02-07T00:51:43.146Z,98879.19
2023-02-07T00:54:11.460Z,98881.56
2023-02-07T00:56:40.539Z,98874.59
2023-02-07T00:59:08.898Z,98868.81
2023-02-07T01:01:38.292Z,98858.34
2023-02-07T01:04:08.135Z,98851.22
2023-02-07T01:06:37.197Z,98845.75
2023-02-07T01:09:07.875Z,98848.13
2023-02-07T01:11:36.201Z,98867.94
2023-02-07T01:14:05.118Z,98871.94
2023-02-07T01:16:41.398Z,98882.56
2023-02-07T01:19:13.938Z,98882.72
2023-02-07T01:21:42.268Z,98889.03
2023-02-07T01:24:11.602Z,98897.34
2023-02-07T01:26:41.344Z,98897.94
2023-02-07T01:29:14.565Z,98894.16
2023-02-07T01:31:43.558Z,98890.00
2023-02-07T01:34:14.631Z,98875.41
2023-02-07T01:36:43.000Z,98872.13
2023-02-07T01:39:17.464Z,98871.34
2023-02-07T01:41:46.156Z,98876.84
2023-02-07T01:45:04.150Z,98863.13
2023-02-07T01:47:34.994Z,98851.81
2023-02-07T01:50:05.523Z,98864.13
2023-02-07T01:52:39.549Z,98874.91
2023-02-07T01:55:14.029Z,98882.09
2023-02-07T01:57:44.132Z,98875.94
2023-02-07T02:00:17.169Z,98877.94
2023-02-07T02:02:46.173Z,98883.91
2023-02-07T02:05:17.479Z,98878.41
2023-02-07T02:07:45.897Z,98869.28
2023-02-07T02:10:22.836Z,98884.41
2023-02-07T02:13:18.095Z,98880.59
2023-02-07T02:15:58.635Z,98870.06
2023-02-07T02:18:58.548Z,98862.41
2023-02-07T02:22:20.313Z,98857.97
2023-02-07T02:25:37.927Z,98864.56
2023-02-07T02:28:34.521Z,98870.06
2023-02-07T02:31:41.050Z,98885.22
2023-02-07T02:34:19.377Z,98891.72
2023-02-07T02:37:01.168Z,98896.22
2023-02-07T02:39:42.237Z,98899.22
2023-02-07T02:42:19.413Z,98895.56
2023-02-07T02:44:57.043Z,98888.09
2023-02-07T02:47:31.870Z,98896.91
2023-02-07T02:50:03.045Z,98904.88
2023-02-07T02:52:49.559Z,98895.06
2023-02-07T02:55:41.193Z,98888.28
2023-02-07T02:58:23.148Z,98878.47
2023-02-07T03:01:07.866Z,98877.28
2023-02-07T03:04:02.442Z,98881.25
2023-02-07T03:06:53.775Z,98871.47
2023-02-07T03:09:37.778Z,98878.63
2023-02-07T03:12:18.149Z,98868.63
2023-02-07T03:15:02.294Z,98868.00
2023-02-07T03:17:44.635Z,98867.97
2023-02-07T03:20:22.146Z,98870.31
2023-02-07T03:22:54.518Z,98869.66
2023-02-07T03:25:25.527Z,98875.63
2023-02-07T03:28:00.865Z,98878.78
2023-02-07T03:33:20.978Z,98876.75
2023-02-07T03:35:58.719Z,98886.56
2023-02-07T03:38:28.640Z,98888.91
2023-02-07T03:41:06.262Z,98887.09
2023-02-07T03:43:37.955Z,98885.25
2023-02-07T03:46:10.397Z,98878.28
2023-02-07T03:48:39.018Z,98869.59
2023-02-07T03:51:08.807Z,98868.78
2023-02-07T03:53:39.262Z,98879.25
2023-02-07T03:56:08.552Z,98873.31
2023-02-07T03:58:40.272Z,98879.09
2023-02-07T04:01:08.988Z,98871.63
2023-02-07T04:03:38.092Z,98873.31
2023-02-07T04:06:07.289Z,98878.28
2023-02-07T04:08:36.633Z,98867.44
2023-02-07T04:11:06.609Z,98867.06
2023-02-07T04:13:37.070Z,98875.75
2023-02-07T04:16:07.692Z,98866.94
2023-02-07T04:18:36.029Z,98855.97
2023-02-07T04:21:07.815Z,98867.09
2023-02-07T04:23:36.834Z,98873.03
2023-02-07T04:26:06.838Z,98867.91
2023-02-07T04:28:35.315Z,98870.25
2023-02-07T04:31:03.942Z,98867.28
2023-02-07T04:33:32.629Z,98871.66
2023-02-07T04:36:03.428Z,98879.13
2023-02-07T04:38:31.952Z,98877.63
2023-02-07T04:41:03.445Z,98878.63
2023-02-07T04:43:35.269Z,98880.47
2023-02-07T04:46:05.001Z,98874.97
2023-02-07T04:48:34.281Z,98871.97
2023-02-07T04:51:03.228Z,98861.31
2023-02-07T04:53:31.598Z,98866.78
2023-02-07T04:56:00.522Z,98872.63
2023-02-07T04:58:28.961Z,98887.56
2023-02-07T05:00:58.702Z,98881.59
2023-02-07T05:03:27.275Z,98882.25
2023-02-07T05:05:56.157Z,98888.22
2023-02-07T05:08:26.312Z,98882.75
2023-02-07T05:10:56.095Z,98877.59
2023-02-07T05:13:25.930Z,98874.28
2023-02-07T05:15:54.576Z,98867.66
2023-02-07T05:18:25.481Z,98861.50
2023-02-07T05:20:55.398Z,98857.84
2023-02-07T05:23:23.914Z,98866.66
2023-02-07T05:25:52.451Z,98864.19
2023-02-07T05:28:21.044Z,98858.84
2023-02-07T05:30:49.558Z,98866.31
2023-02-07T05:33:17.282Z,98864.81
2023-02-07T05:35:47.330Z,98867.97
2023-02-07T05:38:18.640Z,98872.63
2023-02-07T05:40:49.071Z,98871.63
2023-02-07T05:43:17.378Z,98878.47
2023-02-07T05:45:46.683Z,98876.28
2023-02-07T05:48:15.458Z,98887.91
2023-02-07T05:50:44.209Z,98887.75
2023-02-07T05:53:14.082Z,98882.41
2023-02-07T05:55:42.625Z,98891.88
2023-02-07T05:58:10.973Z,98893.69
2023-02-07T06:00:39.448Z,98893.19
2023-02-07T06:03:07.708Z,98890.03
2023-02-07T06:05:36.671Z,98899.66
2023-02-07T06:08:05.657Z,98905.16
2023-02-07T06:10:35.708Z,98895.84
2023-02-07T06:13:04.078Z,98908.47
2023-02-07T06:15:32.852Z,98911.28
2023-02-07T06:18:01.403Z,98906.28
2023-02-07T06:20:29.866Z,98913.88
2023-02-07T06:22:58.156Z,98913.31
2023-02-07T06:25:26.516Z,98910.00
2023-02-07T06:27:56.714Z,98921.66
2023-02-07T06:30:25.099Z,98911.25
2023-02-07T06:32:53.813Z,98918.53
2023-02-07T06:35:22.265Z,98910.75
2023-02-07T06:37:50.591Z,98910.28
2023-02-07T06:40:19.832Z,98910.47
2023-02-07T06:42:48.349Z,98911.81
2023-02-07T06:45:18.683Z,98901.19
2023-02-07T06:47:47.383Z,98912.34
2023-02-07T06:50:16.656Z,98916.81
2023-02-07T06:52:45.306Z,98904.22
2023-02-07T06:55:15.876Z,98904.22
2023-02-07T06:57:44.424Z,98907.88
2023-02-07T07:00:14.583Z,98919.00
2023-02-07T07:02:44.309Z,98917.22
2023-02-07T07:05:14.043Z,98915.84
2023-02-07T07:07:43.321Z,98917.19
2023-02-07T07:10:13.104Z,98912.03
2023-02-07T07:12:46.181Z,98918.81
2023-02-07T07:15:14.591Z,98925.41
2023-02-07T07:17:44.343Z,98918.38
2023-02-07T07:20:13.293Z,98918.31
2023-02-07T07:22:42.333Z,98926.72
2023-02-07T07:25:11.825Z,98917.59
2023-02-07T07:27:40.997Z,98925.09
2023-02-07T07:30:11.918Z,98919.81
2023-02-07T07:32:40.766Z,98923.69
2023-02-07T07:35:10.802Z,98926.34
2023-02-07T07:37:41.832Z,98930.16
2023-02-07T07:40:11.944Z,98944.56
2023-02-07T07:42:40.324Z,98949.00
2023-02-07T07:45:20.032Z,98957.97
2023-02-07T07:47:48.725Z,98957.81
2023-02-07T07:50:18.956Z,98965.81
2023-02-07T07:52:47.304Z,98965.28
2023-02-07T07:55:16.446Z,98971.38
2023-02-07T07:57:45.192Z,98963.63
2023-02-07T08:00:15.656Z,98958.22
2023-02-07T08:02:46.566Z,98960.03
2023-02-07T08:05:14.925Z,98953.59
2023-02-07T08:07:44.671Z,98944.66
2023-02-07T08:10:13.582Z,98946.69
2023-02-07T08:12:43.921Z,98949.41
2023-02-07T08:15:14.055Z,98954.31
2023-02-07T08:17:42.580Z,98949.84
2023-02-07T08:20:12.874Z,98952.16
2023-02-07T08:22:41.723Z,98947.84
2023-02-07T08:25:11.747Z,98940.03
2023-02-07T08:27:40.434Z,98926.97
2023-02-07T08:30:13.979Z,98939.78
2023-02-07T08:32:42.544Z,98933.34
2023-02-07T08:35:11.538Z,98941.63
2023-02-07T08:37:40.162Z,98948.50
2023-02-07T08:40:11.991Z,98948.41
2023-02-07T08:42:40.602Z,98945.56
2023-02-07T08:45:10.674Z,98946.03
2023-02-07T08:47:39.723Z,98947.63
2023-02-07T08:50:10.422Z,98948.91
2023-02-07T08:52:39.635Z,98934.00
2023-02-07T08:55:10.735Z,98937.22
2023-02-07T08:57:40.269Z,98937.66
2023-02-07T09:00:12.386Z,98949.63
2023-02-07T09:02:42.543Z,98948.19
2023-02-07T09:05:11.546Z,98943.59
2023-02-07T09:07:40.267Z,98938.44
2023-02-07T09:10:11.923Z,98942.53
2023-02-07T09:12:40.740Z,98943.38
2023-02-07T09:15:10.730Z,98932.66
2023-02-07T09:17:39.075Z,98935.22
2023-02-07T09:20:08.244Z,98935.19
2023-02-07T09:22:57.208Z,98938.13
2023-02-07T09:25:27.132Z,98936.94
2023-02-07T09:27:56.006Z,98932.78
2023-02-07T09:30:24.556Z,98926.94
2023-02-07T09:32:52.891Z,98930.78
2023-02-07T09:35:21.512Z,98940.66
2023-02-07T09:37:50.359Z,98938.31
2023-02-07T09:40:20.978Z,98936.28
2023-02-07T09:42:59.966Z,98937.91
2023-02-07T09:45:34.165Z,98945.31
2023-02-07T09:48:13.165Z,98955.88
2023-02-07T09:50:52.334Z,98948.84
2023-02-07T09:53:27.525Z,98954.44
2023-02-07T09:55:59.886Z,98946.44
2023-02-07T09:58:41.291Z,98938.97
2023-02-07T10:01:18.363Z,98933.91
2023-02-07T10:04:02.630Z,98937.22
2023-02-07T10:06:31.241Z,98927.34
2023-02-07T10:09:02.419Z,98921.09
2023-02-07T10:11:46.942Z,98912.03
2023-02-07T10:14:38.658Z,98913.13
2023-02-07T10:17:31.998Z,98929.09
2023-02-07T10:20:25.796Z,98926.31
2023-02-07T10:23:14.980Z,98911.69
2023-02-07T10:26:00.241Z,98924.13
2023-02-07T10:29:11.907Z,98932.28
2023-02-07T10:31:49.774Z,98925.88
2023-02-07T10:34:24.236Z,98929.28
2023-02-07T10:37:00.425Z,98921.56
2023-02-07T10:39:34.558Z,98928.19
2023-02-07T10:42:03.233Z,98923.50
2023-02-07T10:44:31.755Z,98923.47
2023-02-07T10:47:07.156Z,98929.22
2023-02-07T10:49:40.023Z,98926.38
2023-02-07T10:52:28.715Z,98925.72
2023-02-07T10:55:00.122Z,98929.22
2023-02-07T10:57:31.198Z,98935.00
2023-02-07T11:00:05.262Z,98929.22
2023-02-07T11:02:50.270Z,98918.03
2023-02-07T11:05:39.670Z,98927.78
2023-02-07T11:08:24.668Z,98923.03
2023-02-07T11:10:56.218Z,98932.53
2023-02-07T11:13:32.703Z,98925.72
2023-02-07T11:16:07.222Z,98927.59
2023-02-07T11:18:45.867Z,98914.97
2023-02-07T11:21:39.327Z,98908.38
2023-02-07T11:24:15.658Z,98910.66
2023-02-07T11:27:00.945Z,98909.00
2023-02-07T11:29:31.812Z,98911.38
2023-02-07T11:32:04.087Z,98905.88
2023-02-07T11:34:49.236Z,98910.75
2023-02-07T11:37:31.418Z,98910.06
2023-02-07T11:40:27.945Z,98908.50
2023-02-07T11:43:03.758Z,98895.22
2023-02-07T11:45:35.554Z,98900.44
2023-02-07T11:48:06.014Z,98893.38
2023-02-07T11:50:40.279Z,98898.91
2023-02-07T11:53:24.496Z,98899.88
2023-02-07T11:55:57.242Z,98895.53
2023-02-07T11:58:35.415Z,98892.13
2023-02-07T12:01:07.035Z,98887.69
2023-02-07T12:03:43.487Z,98895.03
2023-02-07T12:06:20.464Z,98887.06
2023-02-07T12:08:52.412Z,98876.75
2023-02-07T12:11:28.154Z,98872.53
2023-02-07T12:14:04.087Z,98863.69
2023-02-07T12:16:42.488Z,98860.44
2023-02-07T12:19:20.497Z,98856.38
2023-02-07T12:22:01.579Z,98865.78
2023-02-07T12:24:38.342Z,98856.34
2023-02-07T12:27:15.913Z,98858.16
2023-02-07T12:29:59.377Z,98855.59
2023-02-07T12:32:45.781Z,98855.81
2023-02-07T12:35:26.029Z,98848.25
2023-02-07T12:38:06.306Z,98839.66
2023-02-07T12:40:43.877Z,98829.19
2023-02-07T12:43:22.313Z,98837.88
2023-02-07T12:46:15.366Z,98822.97
2023-02-07T12:49:09.540Z,98837.03
2023-02-07T12:51:53.691Z,98840.56
2023-02-07T12:54:44.008Z,98840.03
2023-02-07T12:57:25.211Z,98847.59
2023-02-07T13:00:06.216Z,98843.09
2023-02-07T13:02:58.907Z,98840.59
2023-02-07T13:05:56.124Z,98838.03
2023-02-07T13:08:38.555Z,98849.44
2023-02-07T13:11:27.536Z,98835.72
2023-02-07T13:14:13.355Z,98841.59
2023-02-07T13:16:55.217Z,98835.72
2023-02-07T13:19:35.857Z,98838.69
2023-02-07T13:22:15.522Z,98831.63
2023-02-07T13:24:47.417Z,98828.38
2023-02-07T13:27:22.664Z,98841.41
2023-02-07T13:29:53.248Z,98836.78
2023-02-07T13:32:25.467Z,98838.84
2023-02-07T13:35:01.653Z,98844.69
2023-02-07T13:37:46.361Z,98849.84
2023-02-07T13:40:34.298Z,98852.97
2023-02-07T13:43:14.238Z,98848.88
2023-02-07T13:45:56.654Z,98845.88
2023-02-07T13:48:36.481Z,98853.03
2023-02-07T13:51:19.193Z,98846.41
2023-02-07T13:54:01.815Z,98847.88
2023-02-07T13:57:04.985Z,98844.28
2023-02-07T13:59:40.049Z,98846.72
2023-02-07T14:02:20.186Z,98846.28
2023-02-07T14:04:53.978Z,98850.50
2023-02-07T14:07:29.866Z,98849.00
2023-02-07T14:09:59.491Z,98839.13
2023-02-07T14:12:33.013Z,98847.25
2023-02-07T14:15:53.444Z,98849.06
2023-02-07T14:18:52.602Z,98858.53
2023-02-07T14:21:31.914Z,98854.19
2023-02-07T14:24:22.664Z,98856.41
2023-02-07T14:27:04.895Z,98849.25
2023-02-07T14:30:24.829Z,98851.94
2023-02-07T14:33:15.568Z,98841.78
2023-02-07T14:36:05.307Z,98840.03
2023-02-07T14:38:41.082Z,98842.59
2023-02-07T14:41:15.187Z,98844.09
2023-02-07T14:44:03.337Z,98842.63
2023-02-07T14:46:42.159Z,98845.41
2023-02-07T14:49:22.568Z,98844.19
2023-02-07T14:51:55.744Z,98850.25
2023-02-07T14:54:31.477Z,98846.47
2023-02-07T14:57:17.998Z,98842.38
2023-02-07T15:00:00.648Z,98846.59
2023-02-07T15:02:40.559Z,98855.72
2023-02-07T15:05:24.467Z,98855.84
2023-02-07T15:08:08.465Z,98855.09
2023-02-07T15:10:42.063Z,98858.03
2023-02-07T15:13:23.782Z,98858.56
2023-02-07T15:15:57.876Z,98855.41
2023-02-07T15:18:34.210Z,98848.78
2023-02-07T15:21:05.101Z,98850.84
2023-02-07T15:23:34.455Z,98855.13
2023-02-07T15:26:09.419Z,98858.19
2023-02-07T15:28:38.001Z,98846.72
2023-02-07T15:31:14.073Z,98853.50
2023-02-07T15:33:52.338Z,98856.19
2023-02-07T15:36:47.845Z,98850.75
2023-02-07T15:39:21.255Z,98850.09
2023-02-07T15:41:52.097Z,98850.06
2023-02-07T15:44:23.875Z,98857.69
2023-02-07T15:46:55.800Z,98857.78
2023-02-07T15:49:32.980Z,98857.09
2023-02-07T15:52:15.496Z,98863.19
2023-02-07T15:54:50.146Z,98869.88
2023-02-07T15:57:27.192Z,98870.25
2023-02-07T16:00:02.455Z,98874.38
2023-02-07T16:02:47.549Z,98875.13
2023-02-07T16:05:28.086Z,98881.56
2023-02-07T16:08:02.153Z,98886.38
2023-02-07T16:10:38.420Z,98890.66
2023-02-07T16:13:19.717Z,98894.03
2023-02-07T16:15:58.738Z,98896.59
2023-02-07T16:18:39.453Z,98897.41
2023-02-07T16:21:15.007Z,98900.94
2023-02-07T16:23:46.509Z,98905.69
2023-02-07T16:26:18.243Z,98903.16
2023-02-07T16:28:48.017Z,98899.66
2023-02-07T16:31:20.373Z,98898.56
2023-02-07T16:33:48.836Z,98912.19
2023-02-07T16:36:19.561Z,98916.50
2023-02-07T16:38:49.576Z,98916.50
2023-02-07T16:41:31.707Z,98923.03
2023-02-07T16:44:02.362Z,98926.91
2023-02-07T16:46:30.738Z,98927.22
2023-02-07T16:48:59.066Z,98926.81
2023-02-07T16:51:27.451Z,98921.41
2023-02-07T16:53:57.490Z,98916.44
2023-02-07T16:56:29.466Z,98922.59
2023-02-07T16:58:58.323Z,98919.28
2023-02-07T17:01:26.752Z,98928.56
2023-02-07T17:03:55.411Z,98926.03
2023-02-07T17:06:25.378Z,98927.63
2023-02-07T17:08:56.602Z,98928.78
2023-02-07T17:11:27.570Z,98924.84
2023-02-07T17:13:58.549Z,98929.69
2023-02-07T17:16:28.901Z,98935.97
2023-02-07T17:18:57.361Z,98940.56
2023-02-07T17:21:25.756Z,98935.47
2023-02-07T17:23:54.325Z,98930.88
2023-02-07T17:26:28.294Z,98933.69
2023-02-07T17:28:57.205Z,98931.50
2023-02-07T17:31:26.792Z,98937.91
2023-02-07T17:33:56.612Z,98939.53
2023-02-07T17:36:25.283Z,98934.75
2023-02-07T17:38:55.707Z,98933.28
2023-02-07T17:41:25.195Z,98934.50
2023-02-07T17:43:55.393Z,98933.22
2023-02-07T17:46:26.692Z,98934.78
2023-02-07T17:48:56.412Z,98930.47
2023-02-07T17:51:27.639Z,98935.13
2023-02-07T17:53:57.014Z,98938.59
2023-02-07T17:56:28.003Z,98938.78
2023-02-07T17:59:00.872Z,98941.19
2023-02-07T18:01:29.605Z,98932.34
2023-02-07T18:03:59.109Z,98939.34
2023-02-07T18:06:30.349Z,98935.28
2023-02-07T18:08:59.683Z,98941.56
2023-02-07T18:11:29.069Z,98936.22
2023-02-07T18:13:59.118Z,98937.53
2023-02-07T18:16:28.189Z,98931.91
2023-02-07T18:18:57.984Z,98937.44
2023-02-07T18:21:27.746Z,98936.59
2023-02-07T18:23:56.701Z,98930.59
2023-02-07T18:26:25.053Z,98921.94
2023-02-07T18:28:53.996Z,98933.19
2023-02-07T18:31:26.436Z,98937.81
2023-02-07T18:33:56.063Z,98941.84
2023-02-07T18:36:26.858Z,98943.91
2023-02-07T18:38:58.233Z,98944.44
2023-02-07T18:41:27.421Z,98947.94
2023-02-07T18:43:56.111Z,98946.84
2023-02-07T18:46:25.863Z,98940.75
2023-02-07T18:48:56.908Z,98943.13
2023-02-07T18:51:26.348Z,98953.19
2023-02-07T18:53:55.368Z,98947.00
2023-02-07T18:56:26.641Z,98950.50
2023-02-07T18:58:56.825Z,98944.34
2023-02-07T19:01:30.366Z,98939.91
2023-02-07T19:04:01.693Z,98937.50
2023-02-07T19:06:33.377Z,98936.91
2023-02-07T19:09:01.981Z,98940.66
2023-02-07T19:11:31.193Z,98936.81
2023-02-07T19:13:59.500Z,98928.81
2023-02-07T19:16:29.832Z,98939.13
2023-02-07T19:19:01.953Z,98933.03
2023-02-07T19:21:30.635Z,98938.38
2023-02-07T19:23:59.907Z,98932.75
2023-02-07T19:26:28.262Z,98932.47
2023-02-07T19:28:58.950Z,98942.41
2023-02-07T19:31:30.346Z,98940.56
2023-02-07T19:34:00.536Z,98954.63
2023-02-07T19:36:30.325Z,98949.28
2023-02-07T19:38:59.680Z,98954.63
2023-02-07T19:41:30.293Z,98954.97
2023-02-07T19:43:58.868Z,98951.84
2023-02-07T19:46:28.757Z,98948.47
2023-02-07T19:48:57.149Z,98942.13
2023-02-07T19:51:28.628Z,98945.69
2023-02-07T19:53:57.779Z,98945.31
2023-02-07T19:56:29.042Z,98947.03
2023-02-07T19:58:57.748Z,98947.22
2023-02-07T20:01:28.090Z,98950.91
2023-02-07T20:03:58.478Z,98951.38
2023-02-07T20:06:32.902Z,98959.38
2023-02-07T20:09:04.198Z,98950.72
2023-02-07T20:11:33.165Z,98950.31
2023-02-07T20:14:04.017Z,98955.22
2023-02-07T20:16:38.750Z,98943.97
2023-02-07T20:19:08.768Z,98939.13
2023-02-07T20:21:38.682Z,98945.41
2023-02-07T20:24:08.230Z,98947.78
2023-02-07T20:26:40.276Z,98944.66
2023-02-07T20:29:13.171Z,98956.59
2023-02-07T20:31:44.991Z,98955.66
2023-02-07T20:34:13.961Z,98957.34
2023-02-07T20:36:43.725Z,98962.09
2023-02-07T20:39:15.858Z,98957.00
2023-02-07T20:41:46.889Z,98962.88
2023-02-07T20:44:18.955Z,98965.88
2023-02-07T20:46:51.403Z,98968.91
2023-02-07T20:49:22.506Z,98965.59
2023-02-07T20:51:52.592Z,98956.94
2023-02-07T20:54:24.376Z,98953.81
2023-02-07T20:56:54.174Z,98950.19
2023-02-07T20:59:25.891Z,98953.25
2023-02-07T21:01:56.286Z,98961.28
2023-02-07T21:04:26.083Z,98969.13
2023-02-07T21:06:55.050Z,98959.66
2023-02-07T21:09:24.341Z,98960.34
2023-02-07T21:11:54.862Z,98967.88
2023-02-07T21:14:26.731Z,98966.78
2023-02-07T21:17:01.309Z,98969.78
2023-02-07T21:19:30.305Z,98976.47
2023-02-07T21:21:59.039Z,98977.25
2023-02-07T21:24:27.874Z,98972.81
2023-02-07T21:26:58.155Z,98968.78
2023-02-07T21:29:31.077Z,98967.38
2023-02-07T21:32:01.146Z,98963.00
2023-02-07T21:34:30.126Z,98962.75
2023-02-07T21:36:59.707Z,98952.22
2023-02-07T21:39:31.611Z,98946.41
2023-02-07T21:42:00.360Z,98946.13
2023-02-07T21:44:29.375Z,98944.94
2023-02-07T21:46:57.764Z,98946.75
2023-02-07T21:49:27.516Z,98954.56
2023-02-07T21:51:56.495Z,98949.31
2023-02-07T21:54:25.221Z,98949.16
2023-02-07T21:56:53.616Z,98952.69
2023-02-07T21:59:23.574Z,98953.59
2023-02-07T22:01:52.904Z,98948.94
2023-02-07T22:04:22.079Z,98946.78
2023-02-07T22:06:51.979Z,98949.94
2023-02-07T22:09:23.513Z,98938.94
2023-02-07T22:11:52.266Z,98941.59
2023-02-07T22:14:21.332Z,98940.13
2023-02-07T22:16:53.049Z,98942.63
2023-02-07T22:19:22.798Z,98942.78
2023-02-07T22:21:52.933Z,98935.78
2023-02-07T22:24:22.112Z,98945.44
2023-02-07T22:26:50.504Z,98934.94
2023-02-07T22:29:18.918Z,98943.84
2023-02-07T22:31:47.788Z,98936.50
2023-02-07T22:34:16.969Z,98946.59
2023-02-07T22:36:47.262Z,98933.41
2023-02-07T22:39:19.212Z,98932.13
2023-02-07T22:41:47.929Z,98934.63
2023-02-07T22:44:16.373Z,98933.63
2023-02-07T22:46:45.069Z,98928.72
2023-02-07T22:49:13.627Z,98930.75
2023-02-07T22:51:42.605Z,98934.22
2023-02-07T22:54:18.619Z,98932.91
2023-02-07T22:56:47.410Z,98941.25
2023-02-07T22:59:15.930Z,98936.28
2023-02-07T23:01:45.562Z,98938.66
2023-02-07T23:04:17.684Z,98939.16
2023-02-07T23:06:47.541Z,98940.00
2023-02-07T23:09:17.329Z,98935.69
2023-02-07T23:11:47.026Z,98932.41
2023-02-07T23:14:16.454Z,98936.06
2023-02-07T23:16:45.078Z,98938.41
2023-02-07T23:19:16.157Z,98933.25
2023-02-07T23:21:45.249Z,98946.91
2023-02-07T23:24:13.692Z,98944.06
2023-02-07T23:26:43.396Z,98939.94
2023-02-07T23:29:12.233Z,98934.06
2023-02-07T23:31:41.271Z,98933.41
2023-02-07T23:34:10.534Z,98937.44
2023-02-07T23:36:40.201Z,98936.09
2023-02-07T23:39:09.085Z,98931.94
2023-02-07T23:41:39.496Z,98932.28
2023-02-07T23:44:09.505Z,98927.63
2023-02-07T23:46:38.556Z,98918.13
2023-02-07T23:49:07.591Z,98914.94
2023-02-07T23:51:36.058Z,98915.44
2023-02-07T23:54:04.994Z,98920.06
2023-02-07T23:56:33.856Z,98918.91
2023-02-07T23:59:02.252Z,98919.53
